EZY86JD EGPH-LGIR
Flight info
| Callsign | EZY86JD |
|---|---|
| Flight time | 4h 2m |
| Altitude | 35000 |
| Route | TLA Y96 OTBUN DCT ERKIT N110 DOLAS DCT NAVPI DCT TIVUN DCT ESAMA DCT OSBIT DCT TENLO DCT LAMSI DCT ZINPE DCT GUBOK DCT PODOB DCT UTOMO DCT ENFAR DCT BITLA DCT LUSES DCT ATV UL607 GIVIS T514 XAVIS |
| Aircraft | A320/M-SDE3FGHIRWY/LB1 |
Departure
| Time | 2026-05-06 15:13 |
|---|---|
| Airport | Edinburgh Airport (EGPH) |
Arrival
| Time | 2026-05-06 19:16 |
|---|---|
| Airport | Heraklion International Nikos Kazantzakis Airport (LGIR) |
| Time | Latitude | Longitude | Altitude | Speed | Heading |
|---|---|---|---|---|---|
| 2026-05-06 14:49 | 55.94920 | -3.36429 | 116 ft | 1 kts | 146° |
| 2026-05-06 15:00 | 55.94938 | -3.36449 | 114 ft | 4 kts | 154° |
| 2026-05-06 15:01 | 55.94963 | -3.36466 | 114 ft | 4 kts | 172° |
| 2026-05-06 15:01 | 55.94988 | -3.36463 | 112 ft | 4 kts | 214° |
| 2026-05-06 15:01 | 55.94997 | -3.36447 | 112 ft | 1 kts | 239° |
| 2026-05-06 15:01 | 55.94998 | -3.36444 | 113 ft | 0 kts | 239° |
| 2026-05-06 15:06 | 55.94997 | -3.36446 | 112 ft | 1 kts | 239° |
| 2026-05-06 15:06 | 55.94990 | -3.36469 | 111 ft | 2 kts | 239° |
| 2026-05-06 15:07 | 55.94977 | -3.36505 | 112 ft | 8 kts | 239° |
| 2026-05-06 15:07 | 55.94947 | -3.36595 | 111 ft | 8 kts | 239° |
| 2026-05-06 15:07 | 55.94922 | -3.36668 | 111 ft | 6 kts | 238° |
| 2026-05-06 15:07 | 55.94903 | -3.36725 | 112 ft | 5 kts | 238° |
| 2026-05-06 15:08 | 55.94893 | -3.36768 | 113 ft | 4 kts | 256° |
| 2026-05-06 15:08 | 55.94913 | -3.36827 | 115 ft | 6 kts | 324° |
| 2026-05-06 15:08 | 55.94926 | -3.36898 | 115 ft | 8 kts | 255° |
| 2026-05-06 15:08 | 55.94895 | -3.36986 | 112 ft | 10 kts | 238° |
| 2026-05-06 15:09 | 55.94848 | -3.37124 | 112 ft | 16 kts | 239° |
| 2026-05-06 15:09 | 55.94787 | -3.37305 | 112 ft | 17 kts | 239° |
| 2026-05-06 15:09 | 55.94715 | -3.37516 | 115 ft | 22 kts | 239° |
| 2026-05-06 15:09 | 55.94640 | -3.37735 | 113 ft | 19 kts | 239° |
| 2026-05-06 15:10 | 55.94576 | -3.37931 | 114 ft | 17 kts | 238° |
| 2026-05-06 15:10 | 55.94518 | -3.38102 | 112 ft | 15 kts | 240° |
| 2026-05-06 15:10 | 55.94467 | -3.38251 | 115 ft | 13 kts | 238° |
| 2026-05-06 15:10 | 55.94406 | -3.38429 | 114 ft | 20 kts | 238° |
| 2026-05-06 15:11 | 55.94339 | -3.38629 | 113 ft | 18 kts | 239° |
| 2026-05-06 15:11 | 55.94284 | -3.38785 | 115 ft | 9 kts | 238° |
| 2026-05-06 15:11 | 55.94293 | -3.38872 | 112 ft | 7 kts | 321° |
| 2026-05-06 15:11 | 55.94329 | -3.38913 | 114 ft | 7 kts | 329° |
| 2026-05-06 15:12 | 55.94378 | -3.38966 | 114 ft | 9 kts | 329° |
| 2026-05-06 15:12 | 55.94427 | -3.38947 | 113 ft | 7 kts | 48° |
| 2026-05-06 15:12 | 55.94451 | -3.38874 | 114 ft | 8 kts | 60° |
| 2026-05-06 15:12 | 55.94545 | -3.38590 | 113 ft | 59 kts | 59° |
| 2026-05-06 15:13 | 55.94871 | -3.37626 | 114 ft | 120 kts | 59° |
| 2026-05-06 15:13 | 55.95387 | -3.36101 | 182 ft | 160 kts | 58° |
| 2026-05-06 15:13 | 55.95988 | -3.34447 | 860 ft | 160 kts | 51° |
| 2026-05-06 15:13 | 55.96788 | -3.32983 | 1327 ft | 174 kts | 44° |
| 2026-05-06 15:14 | 55.97723 | -3.31460 | 1620 ft | 194 kts | 45° |
| 2026-05-06 15:14 | 55.98800 | -3.29745 | 1849 ft | 222 kts | 44° |
| 2026-05-06 15:14 | 56.00021 | -3.27827 | 2183 ft | 246 kts | 42° |
| 2026-05-06 15:14 | 56.01362 | -3.25740 | 2680 ft | 261 kts | 43° |
| 2026-05-06 15:15 | 56.02744 | -3.23559 | 3409 ft | 268 kts | 43° |
| 2026-05-06 15:15 | 56.04125 | -3.21297 | 4211 ft | 272 kts | 45° |
| 2026-05-06 15:15 | 56.05184 | -3.18511 | 5001 ft | 273 kts | 71° |
| 2026-05-06 15:15 | 56.05421 | -3.15163 | 5733 ft | 276 kts | 93° |
| 2026-05-06 15:16 | 56.05193 | -3.11804 | 5988 ft | 276 kts | 107° |
| 2026-05-06 15:16 | 56.04290 | -3.08834 | 6052 ft | 273 kts | 131° |
| 2026-05-06 15:16 | 56.02906 | -3.06551 | 6082 ft | 272 kts | 147° |
| 2026-05-06 15:16 | 56.01344 | -3.04591 | 6766 ft | 275 kts | 145° |
| 2026-05-06 15:17 | 55.99806 | -3.02524 | 7533 ft | 278 kts | 144° |
| 2026-05-06 15:17 | 55.98203 | -3.00582 | 8306 ft | 280 kts | 153° |
| 2026-05-06 15:17 | 55.96386 | -2.99393 | 9022 ft | 280 kts | 175° |
| 2026-05-06 15:17 | 55.94481 | -2.99855 | 9744 ft | 280 kts | 203° |
| 2026-05-06 15:18 | 55.92679 | -3.01250 | 10276 ft | 290 kts | 205° |
| 2026-05-06 15:18 | 55.90772 | -3.02793 | 10434 ft | 313 kts | 206° |
| 2026-05-06 15:18 | 55.88751 | -3.04439 | 10560 ft | 334 kts | 205° |
| 2026-05-06 15:18 | 55.86570 | -3.06209 | 10689 ft | 355 kts | 205° |
| 2026-05-06 15:19 | 55.84280 | -3.08058 | 11036 ft | 366 kts | 205° |
| 2026-05-06 15:19 | 55.81948 | -3.09935 | 11604 ft | 370 kts | 205° |
| 2026-05-06 15:19 | 55.79590 | -3.11826 | 12206 ft | 373 kts | 206° |
| 2026-05-06 15:19 | 55.77210 | -3.13725 | 12794 ft | 377 kts | 206° |
| 2026-05-06 15:20 | 55.74807 | -3.15633 | 13389 ft | 380 kts | 206° |
| 2026-05-06 15:20 | 55.72382 | -3.17552 | 13936 ft | 384 kts | 206° |
| 2026-05-06 15:20 | 55.69935 | -3.19486 | 14446 ft | 387 kts | 206° |
| 2026-05-06 15:20 | 55.67502 | -3.21409 | 14940 ft | 389 kts | 206° |
| 2026-05-06 15:21 | 55.65024 | -3.23366 | 15437 ft | 391 kts | 206° |
| 2026-05-06 15:21 | 55.62529 | -3.25337 | 15933 ft | 394 kts | 206° |
| 2026-05-06 15:21 | 55.59972 | -3.27125 | 16415 ft | 399 kts | 198° |
| 2026-05-06 15:21 | 55.57205 | -3.27784 | 16873 ft | 406 kts | 181° |
| 2026-05-06 15:22 | 55.54394 | -3.27025 | 17315 ft | 414 kts | 165° |
| 2026-05-06 15:22 | 55.51783 | -3.24788 | 17754 ft | 423 kts | 147° |
| 2026-05-06 15:22 | 55.49623 | -3.21231 | 18183 ft | 430 kts | 129° |
| 2026-05-06 15:22 | 55.48122 | -3.16647 | 18550 ft | 436 kts | 111° |
| 2026-05-06 15:23 | 55.47377 | -3.11530 | 18913 ft | 439 kts | 101° |
| 2026-05-06 15:23 | 55.46805 | -3.06232 | 19295 ft | 442 kts | 101° |
| 2026-05-06 15:23 | 55.46083 | -3.00964 | 19660 ft | 444 kts | 108° |
| 2026-05-06 15:23 | 55.44923 | -2.95923 | 20020 ft | 445 kts | 118° |
| 2026-05-06 15:24 | 55.43421 | -2.91137 | 20381 ft | 447 kts | 120° |
| 2026-05-06 15:24 | 55.41890 | -2.86358 | 20746 ft | 450 kts | 120° |
| 2026-05-06 15:24 | 55.40350 | -2.81547 | 21099 ft | 452 kts | 120° |
| 2026-05-06 15:24 | 55.38803 | -2.76713 | 21446 ft | 455 kts | 120° |
| 2026-05-06 15:25 | 55.37246 | -2.71854 | 21764 ft | 458 kts | 120° |
| 2026-05-06 15:25 | 55.35699 | -2.67036 | 22074 ft | 460 kts | 120° |
| 2026-05-06 15:25 | 55.34123 | -2.62129 | 22403 ft | 462 kts | 120° |
| 2026-05-06 15:25 | 55.32537 | -2.57196 | 22727 ft | 465 kts | 120° |
| 2026-05-06 15:26 | 55.30940 | -2.52245 | 23038 ft | 467 kts | 120° |
| 2026-05-06 15:26 | 55.29261 | -2.47359 | 23365 ft | 469 kts | 126° |
| 2026-05-06 15:26 | 55.27215 | -2.42911 | 23660 ft | 469 kts | 135° |
| 2026-05-06 15:26 | 55.24817 | -2.39033 | 23911 ft | 469 kts | 143° |
| 2026-05-06 15:27 | 55.22217 | -2.35565 | 24160 ft | 470 kts | 144° |
| 2026-05-06 15:27 | 55.19642 | -2.32148 | 24418 ft | 472 kts | 144° |
| 2026-05-06 15:27 | 55.17024 | -2.28677 | 24672 ft | 473 kts | 144° |
| 2026-05-06 15:27 | 55.14395 | -2.25199 | 24915 ft | 475 kts | 144° |
| 2026-05-06 15:28 | 55.11756 | -2.21711 | 25152 ft | 476 kts | 144° |
| 2026-05-06 15:28 | 55.09108 | -2.18215 | 25394 ft | 478 kts | 144° |
| 2026-05-06 15:28 | 55.06457 | -2.14720 | 25689 ft | 478 kts | 144° |
| 2026-05-06 15:28 | 55.03801 | -2.11228 | 25942 ft | 479 kts | 144° |
| 2026-05-06 15:29 | 55.01134 | -2.07727 | 26174 ft | 480 kts | 144° |
| 2026-05-06 15:29 | 54.98500 | -2.04274 | 26417 ft | 481 kts | 145° |
| 2026-05-06 15:29 | 54.95829 | -2.00779 | 26772 ft | 479 kts | 145° |
| 2026-05-06 15:29 | 54.93164 | -1.97302 | 27107 ft | 478 kts | 145° |
| 2026-05-06 15:30 | 54.90504 | -1.93835 | 27436 ft | 478 kts | 145° |
| 2026-05-06 15:30 | 54.87844 | -1.90376 | 27768 ft | 477 kts | 145° |
| 2026-05-06 15:30 | 54.85188 | -1.86929 | 28091 ft | 476 kts | 145° |
| 2026-05-06 15:30 | 54.82535 | -1.83498 | 28399 ft | 476 kts | 145° |
| 2026-05-06 15:31 | 54.79882 | -1.80075 | 28733 ft | 475 kts | 145° |
| 2026-05-06 15:31 | 54.77271 | -1.76704 | 29060 ft | 474 kts | 145° |
| 2026-05-06 15:31 | 54.74628 | -1.73293 | 29392 ft | 474 kts | 145° |
| 2026-05-06 15:32 | 54.69362 | -1.66504 | 30096 ft | 471 kts | 145° |
| 2026-05-06 15:32 | 54.66738 | -1.63127 | 30396 ft | 470 kts | 145° |
| 2026-05-06 15:32 | 54.64117 | -1.59761 | 30683 ft | 469 kts | 146° |
| 2026-05-06 15:32 | 54.61503 | -1.56413 | 30974 ft | 468 kts | 146° |
| 2026-05-06 15:33 | 54.58919 | -1.53117 | 31254 ft | 467 kts | 146° |
| 2026-05-06 15:33 | 54.56308 | -1.49795 | 31518 ft | 467 kts | 146° |
| 2026-05-06 15:33 | 54.53683 | -1.46460 | 31775 ft | 466 kts | 146° |
| 2026-05-06 15:33 | 54.51063 | -1.43135 | 32031 ft | 466 kts | 146° |
| 2026-05-06 15:34 | 54.48483 | -1.39868 | 32275 ft | 465 kts | 146° |
| 2026-05-06 15:34 | 54.45873 | -1.36565 | 32551 ft | 465 kts | 146° |
| 2026-05-06 15:34 | 54.43267 | -1.33272 | 32818 ft | 464 kts | 146° |
| 2026-05-06 15:34 | 54.40659 | -1.29977 | 33060 ft | 464 kts | 146° |
| 2026-05-06 15:35 | 54.38053 | -1.26686 | 33310 ft | 464 kts | 146° |
| 2026-05-06 15:35 | 54.35449 | -1.23406 | 33545 ft | 463 kts | 146° |
| 2026-05-06 15:35 | 54.32881 | -1.20176 | 33795 ft | 463 kts | 146° |
| 2026-05-06 15:35 | 54.30282 | -1.16914 | 34022 ft | 463 kts | 146° |
| 2026-05-06 15:36 | 54.27680 | -1.13654 | 34238 ft | 463 kts | 146° |
| 2026-05-06 15:36 | 54.25083 | -1.10399 | 34437 ft | 462 kts | 146° |
| 2026-05-06 15:36 | 54.22481 | -1.07142 | 34629 ft | 462 kts | 146° |
| 2026-05-06 15:36 | 54.19882 | -1.03900 | 34867 ft | 461 kts | 147° |
| 2026-05-06 15:37 | 54.17323 | -1.00720 | 35012 ft | 460 kts | 147° |
| 2026-05-06 15:37 | 54.14723 | -0.97494 | 35059 ft | 462 kts | 147° |
| 2026-05-06 15:37 | 54.09514 | -0.91046 | 35054 ft | 462 kts | 147° |
| 2026-05-06 15:38 | 54.04294 | -0.84602 | 35054 ft | 462 kts | 147° |
| 2026-05-06 15:38 | 53.99083 | -0.78277 | 35042 ft | 462 kts | 148° |
| 2026-05-06 15:39 | 53.93792 | -0.72108 | 35054 ft | 461 kts | 149° |
| 2026-05-06 15:39 | 53.88485 | -0.65978 | 35052 ft | 460 kts | 148° |
| 2026-05-06 15:40 | 53.83191 | -0.59836 | 35050 ft | 460 kts | 148° |
| 2026-05-06 15:40 | 53.77945 | -0.53725 | 35049 ft | 460 kts | 148° |
| 2026-05-06 15:41 | 53.72645 | -0.47577 | 35037 ft | 460 kts | 148° |
| 2026-05-06 15:41 | 53.67390 | -0.41507 | 35048 ft | 460 kts | 149° |
| 2026-05-06 15:42 | 53.62094 | -0.35409 | 35052 ft | 460 kts | 149° |
| 2026-05-06 15:42 | 53.57093 | -0.28643 | 35055 ft | 464 kts | 135° |
| 2026-05-06 15:43 | 53.53122 | -0.20110 | 35056 ft | 467 kts | 129° |
| 2026-05-06 15:43 | 53.49198 | -0.11383 | 35054 ft | 467 kts | 130° |
| 2026-05-06 15:44 | 53.45263 | -0.02689 | 35052 ft | 467 kts | 130° |
| 2026-05-06 15:44 | 53.41355 | 0.05942 | 35043 ft | 467 kts | 130° |
| 2026-05-06 15:45 | 53.37408 | 0.14628 | 35052 ft | 467 kts | 130° |
| 2026-05-06 15:45 | 53.33487 | 0.23250 | 35034 ft | 467 kts | 130° |
| 2026-05-06 15:46 | 53.29537 | 0.31899 | 35036 ft | 467 kts | 130° |
| 2026-05-06 15:46 | 53.25578 | 0.40521 | 35034 ft | 467 kts | 130° |
| 2026-05-06 15:47 | 53.21615 | 0.49113 | 35015 ft | 467 kts | 130° |
| 2026-05-06 15:47 | 53.17769 | 0.57430 | 35021 ft | 466 kts | 130° |
| 2026-05-06 15:48 | 53.13805 | 0.65991 | 35014 ft | 466 kts | 130° |
| 2026-05-06 15:48 | 53.09833 | 0.74533 | 35015 ft | 465 kts | 130° |
| 2026-05-06 15:49 | 53.05882 | 0.83003 | 35014 ft | 465 kts | 130° |
| 2026-05-06 15:49 | 53.01900 | 0.91507 | 35008 ft | 465 kts | 130° |
| 2026-05-06 15:50 | 52.98130 | 1.00186 | 34995 ft | 468 kts | 121° |
| 2026-05-06 15:50 | 52.95602 | 1.10169 | 34999 ft | 470 kts | 112° |
| 2026-05-06 15:51 | 52.93305 | 1.20330 | 35003 ft | 469 kts | 112° |
| 2026-05-06 15:51 | 52.91010 | 1.30409 | 35001 ft | 469 kts | 112° |
| 2026-05-06 15:52 | 52.89090 | 1.38818 | 34999 ft | 469 kts | 112° |
| 2026-05-06 15:52 | 52.86389 | 1.50568 | 34997 ft | 469 kts | 112° |
| 2026-05-06 15:53 | 52.84452 | 1.58961 | 35002 ft | 468 kts | 112° |
| 2026-05-06 15:53 | 52.82122 | 1.69050 | 34999 ft | 468 kts | 112° |
| 2026-05-06 15:54 | 52.79787 | 1.79100 | 34992 ft | 468 kts | 112° |
| 2026-05-06 15:54 | 52.77441 | 1.89132 | 34987 ft | 468 kts | 112° |
| 2026-05-06 15:55 | 52.75099 | 1.99103 | 34990 ft | 468 kts | 113° |
| 2026-05-06 15:55 | 52.72733 | 2.09126 | 34983 ft | 467 kts | 112° |
| 2026-05-06 15:56 | 52.70384 | 2.19045 | 34986 ft | 466 kts | 113° |
| 2026-05-06 15:56 | 52.68017 | 2.29016 | 34986 ft | 466 kts | 112° |
| 2026-05-06 15:57 | 52.65655 | 2.38903 | 34986 ft | 466 kts | 113° |
| 2026-05-06 15:57 | 52.63274 | 2.48814 | 34980 ft | 465 kts | 113° |
| 2026-05-06 15:58 | 52.60881 | 2.58728 | 34972 ft | 466 kts | 113° |
| 2026-05-06 15:58 | 52.58477 | 2.68628 | 34967 ft | 466 kts | 113° |
| 2026-05-06 15:59 | 52.56057 | 2.78535 | 34959 ft | 466 kts | 113° |
| 2026-05-06 15:59 | 52.53584 | 2.88337 | 34951 ft | 465 kts | 115° |
| 2026-05-06 16:00 | 52.50857 | 2.97997 | 34949 ft | 465 kts | 117° |
| 2026-05-06 16:00 | 52.48051 | 3.07509 | 34939 ft | 465 kts | 118° |
| 2026-05-06 16:01 | 52.45261 | 3.17088 | 34945 ft | 465 kts | 117° |
| 2026-05-06 16:01 | 52.42510 | 3.26712 | 34943 ft | 465 kts | 116° |
| 2026-05-06 16:02 | 52.39761 | 3.36306 | 34942 ft | 465 kts | 117° |
| 2026-05-06 16:02 | 52.37001 | 3.45826 | 34936 ft | 464 kts | 117° |
| 2026-05-06 16:03 | 52.34216 | 3.55372 | 34933 ft | 464 kts | 117° |
| 2026-05-06 16:03 | 52.31429 | 3.64908 | 34928 ft | 464 kts | 118° |
| 2026-05-06 16:04 | 52.28641 | 3.74384 | 34925 ft | 464 kts | 118° |
| 2026-05-06 16:04 | 52.25840 | 3.83881 | 34929 ft | 463 kts | 117° |
| 2026-05-06 16:05 | 52.23037 | 3.93355 | 34923 ft | 463 kts | 118° |
| 2026-05-06 16:05 | 52.20246 | 4.02753 | 34922 ft | 462 kts | 118° |
| 2026-05-06 16:06 | 52.17437 | 4.12172 | 34937 ft | 460 kts | 117° |
| 2026-05-06 16:06 | 52.14634 | 4.21566 | 34928 ft | 459 kts | 117° |
| 2026-05-06 16:07 | 52.11843 | 4.30864 | 34920 ft | 459 kts | 118° |
| 2026-05-06 16:07 | 52.09038 | 4.40137 | 34913 ft | 458 kts | 118° |
| 2026-05-06 16:08 | 52.06210 | 4.49444 | 34901 ft | 458 kts | 118° |
| 2026-05-06 16:08 | 52.03391 | 4.58731 | 34904 ft | 458 kts | 118° |
| 2026-05-06 16:09 | 52.00562 | 4.68005 | 34918 ft | 458 kts | 118° |
| 2026-05-06 16:09 | 51.97741 | 4.77218 | 34899 ft | 458 kts | 118° |
| 2026-05-06 16:10 | 51.94898 | 4.86466 | 34898 ft | 457 kts | 118° |
| 2026-05-06 16:10 | 51.92060 | 4.95644 | 34906 ft | 457 kts | 118° |
| 2026-05-06 16:11 | 51.89201 | 5.04846 | 34912 ft | 456 kts | 118° |
| 2026-05-06 16:11 | 51.86353 | 5.13984 | 34909 ft | 456 kts | 118° |
| 2026-05-06 16:12 | 51.83494 | 5.23158 | 34906 ft | 456 kts | 118° |
| 2026-05-06 16:12 | 51.80644 | 5.32277 | 34900 ft | 455 kts | 118° |
| 2026-05-06 16:13 | 51.77774 | 5.41390 | 34900 ft | 455 kts | 119° |
| 2026-05-06 16:13 | 51.74893 | 5.50511 | 34888 ft | 455 kts | 119° |
| 2026-05-06 16:14 | 51.72010 | 5.59619 | 34902 ft | 455 kts | 119° |
| 2026-05-06 16:14 | 51.69136 | 5.68653 | 34887 ft | 455 kts | 119° |
| 2026-05-06 16:15 | 51.66236 | 5.77727 | 34880 ft | 455 kts | 119° |
| 2026-05-06 16:15 | 51.63326 | 5.86790 | 34883 ft | 455 kts | 119° |
| 2026-05-06 16:16 | 51.60434 | 5.95784 | 34883 ft | 455 kts | 119° |
| 2026-05-06 16:16 | 51.57517 | 6.04819 | 34885 ft | 455 kts | 120° |
| 2026-05-06 16:17 | 51.54582 | 6.13864 | 34883 ft | 455 kts | 120° |
| 2026-05-06 16:17 | 51.51666 | 6.22813 | 34886 ft | 454 kts | 120° |
| 2026-05-06 16:18 | 51.48730 | 6.31802 | 34876 ft | 454 kts | 120° |
| 2026-05-06 16:18 | 51.45783 | 6.40802 | 34868 ft | 455 kts | 120° |
| 2026-05-06 16:19 | 51.42855 | 6.49724 | 34868 ft | 455 kts | 120° |
| 2026-05-06 16:19 | 51.39897 | 6.58697 | 34863 ft | 455 kts | 120° |
| 2026-05-06 16:20 | 51.36929 | 6.67672 | 34861 ft | 455 kts | 120° |
| 2026-05-06 16:20 | 51.33945 | 6.76625 | 34859 ft | 455 kts | 120° |
| 2026-05-06 16:21 | 51.30974 | 6.85529 | 34854 ft | 456 kts | 121° |
| 2026-05-06 16:21 | 51.27981 | 6.94469 | 34854 ft | 456 kts | 121° |
| 2026-05-06 16:22 | 51.24976 | 7.03433 | 34860 ft | 456 kts | 121° |
| 2026-05-06 16:22 | 51.21978 | 7.12329 | 34858 ft | 457 kts | 121° |
| 2026-05-06 16:23 | 51.18951 | 7.21249 | 34839 ft | 457 kts | 121° |
| 2026-05-06 16:23 | 51.15940 | 7.30123 | 34842 ft | 458 kts | 121° |
| 2026-05-06 16:24 | 51.12901 | 7.39060 | 34848 ft | 458 kts | 121° |
| 2026-05-06 16:24 | 51.09844 | 7.47982 | 34844 ft | 458 kts | 121° |
| 2026-05-06 16:25 | 51.06811 | 7.56822 | 34837 ft | 458 kts | 121° |
| 2026-05-06 16:25 | 51.03750 | 7.65705 | 34824 ft | 457 kts | 122° |
| 2026-05-06 16:26 | 51.00684 | 7.74592 | 34832 ft | 457 kts | 122° |
| 2026-05-06 16:26 | 50.97633 | 7.83402 | 34819 ft | 457 kts | 122° |
| 2026-05-06 16:27 | 50.94547 | 7.92246 | 34819 ft | 457 kts | 122° |
| 2026-05-06 16:27 | 50.90959 | 8.00363 | 34816 ft | 450 kts | 137° |
| 2026-05-06 16:28 | 50.86475 | 8.07245 | 34800 ft | 448 kts | 139° |
| 2026-05-06 16:28 | 50.81974 | 8.14111 | 34801 ft | 448 kts | 139° |
| 2026-05-06 16:29 | 50.77502 | 8.20930 | 34804 ft | 449 kts | 139° |
| 2026-05-06 16:29 | 50.72995 | 8.27781 | 34804 ft | 448 kts | 139° |
| 2026-05-06 16:30 | 50.69250 | 8.33451 | 34798 ft | 448 kts | 139° |
| 2026-05-06 16:30 | 50.63974 | 8.41404 | 34784 ft | 448 kts | 140° |
| 2026-05-06 16:31 | 50.59485 | 8.48144 | 34790 ft | 448 kts | 140° |
| 2026-05-06 16:31 | 50.54974 | 8.54922 | 34802 ft | 448 kts | 140° |
| 2026-05-06 16:32 | 50.50463 | 8.61683 | 34805 ft | 447 kts | 140° |
| 2026-05-06 16:32 | 50.45955 | 8.68391 | 34809 ft | 446 kts | 140° |
| 2026-05-06 16:33 | 50.41488 | 8.75036 | 34810 ft | 445 kts | 140° |
| 2026-05-06 16:34 | 50.34893 | 8.85305 | 34806 ft | 449 kts | 131° |
| 2026-05-06 16:34 | 50.31829 | 8.93889 | 34795 ft | 455 kts | 117° |
| 2026-05-06 16:35 | 50.29232 | 9.02926 | 34780 ft | 455 kts | 118° |
| 2026-05-06 16:35 | 50.26619 | 9.11891 | 34781 ft | 455 kts | 118° |
| 2026-05-06 16:36 | 50.23977 | 9.20900 | 34784 ft | 455 kts | 118° |
| 2026-05-06 16:36 | 50.22656 | 9.25409 | 34652 ft | 456 kts | 120° |
| 2026-05-06 16:36 | 50.21348 | 9.29875 | 34778 ft | 458 kts | 120° |
| 2026-05-06 16:37 | 50.18674 | 9.38994 | 34784 ft | 461 kts | 120° |
| 2026-05-06 16:37 | 50.16010 | 9.48033 | 34786 ft | 461 kts | 120° |
| 2026-05-06 16:38 | 50.13322 | 9.57103 | 34778 ft | 460 kts | 120° |
| 2026-05-06 16:38 | 50.10624 | 9.66164 | 34766 ft | 461 kts | 120° |
| 2026-05-06 16:39 | 50.08378 | 9.73693 | 34756 ft | 461 kts | 120° |
| 2026-05-06 16:39 | 50.04731 | 9.83720 | 34762 ft | 455 kts | 128° |
| 2026-05-06 16:40 | 50.01833 | 9.90570 | 34758 ft | 456 kts | 129° |
| 2026-05-06 16:40 | 49.98328 | 9.98814 | 34761 ft | 456 kts | 129° |
| 2026-05-06 16:41 | 49.94849 | 10.06997 | 34757 ft | 455 kts | 129° |
| 2026-05-06 16:41 | 49.91353 | 10.15229 | 34765 ft | 456 kts | 129° |
| 2026-05-06 16:42 | 49.87872 | 10.23385 | 34761 ft | 456 kts | 129° |
| 2026-05-06 16:42 | 49.84350 | 10.31577 | 34768 ft | 456 kts | 129° |
| 2026-05-06 16:43 | 49.80828 | 10.39755 | 34763 ft | 456 kts | 129° |
| 2026-05-06 16:43 | 49.77296 | 10.47939 | 34752 ft | 457 kts | 129° |
| 2026-05-06 16:44 | 49.73757 | 10.56117 | 34753 ft | 458 kts | 129° |
| 2026-05-06 16:44 | 49.70224 | 10.64255 | 34746 ft | 458 kts | 129° |
| 2026-05-06 16:45 | 49.66665 | 10.72431 | 34763 ft | 457 kts | 129° |
| 2026-05-06 16:45 | 49.63107 | 10.80575 | 34780 ft | 457 kts | 129° |
| 2026-05-06 16:46 | 49.59563 | 10.88664 | 34764 ft | 456 kts | 129° |
| 2026-05-06 16:46 | 49.55994 | 10.96773 | 34772 ft | 456 kts | 129° |
| 2026-05-06 16:47 | 49.52499 | 11.04881 | 34771 ft | 459 kts | 124° |
| 2026-05-06 16:47 | 49.49590 | 11.13675 | 34775 ft | 461 kts | 121° |
| 2026-05-06 16:48 | 49.46698 | 11.22474 | 34769 ft | 460 kts | 121° |
| 2026-05-06 16:48 | 49.43815 | 11.31222 | 34745 ft | 461 kts | 121° |
| 2026-05-06 16:49 | 49.40906 | 11.40019 | 34748 ft | 461 kts | 121° |
| 2026-05-06 16:49 | 49.37984 | 11.48802 | 34737 ft | 461 kts | 121° |
| 2026-05-06 16:50 | 49.35072 | 11.57520 | 34738 ft | 461 kts | 121° |
| 2026-05-06 16:50 | 49.32139 | 11.66293 | 34738 ft | 461 kts | 121° |
| 2026-05-06 16:51 | 49.29205 | 11.75061 | 34736 ft | 462 kts | 121° |
| 2026-05-06 16:51 | 49.26280 | 11.83766 | 34748 ft | 462 kts | 121° |
| 2026-05-06 16:52 | 49.23315 | 11.92530 | 34750 ft | 462 kts | 121° |
| 2026-05-06 16:52 | 49.20345 | 12.01264 | 34758 ft | 462 kts | 121° |
| 2026-05-06 16:53 | 49.17395 | 12.09938 | 34738 ft | 462 kts | 121° |
| 2026-05-06 16:53 | 49.14419 | 12.18666 | 34739 ft | 462 kts | 121° |
| 2026-05-06 16:54 | 49.11432 | 12.27371 | 34724 ft | 462 kts | 121° |
| 2026-05-06 16:54 | 49.08444 | 12.36073 | 34730 ft | 462 kts | 121° |
| 2026-05-06 16:55 | 49.05468 | 12.44703 | 34706 ft | 462 kts | 121° |
| 2026-05-06 16:55 | 49.02461 | 12.53396 | 34715 ft | 462 kts | 121° |
| 2026-05-06 16:56 | 48.99474 | 12.62015 | 34712 ft | 462 kts | 121° |
| 2026-05-06 16:56 | 48.96446 | 12.70689 | 34719 ft | 462 kts | 121° |
| 2026-05-06 16:57 | 48.93440 | 12.79275 | 34709 ft | 462 kts | 121° |
| 2026-05-06 16:57 | 48.90422 | 12.87875 | 34713 ft | 462 kts | 121° |
| 2026-05-06 16:58 | 48.87395 | 12.96504 | 34705 ft | 462 kts | 121° |
| 2026-05-06 16:58 | 48.84365 | 13.05104 | 34706 ft | 461 kts | 121° |
| 2026-05-06 16:59 | 48.81316 | 13.13688 | 34703 ft | 461 kts | 121° |
| 2026-05-06 16:59 | 48.78286 | 13.22213 | 34886 ft | 463 kts | 125° |
| 2026-05-06 16:59 | 48.76751 | 13.26519 | 34709 ft | 464 kts | 125° |
| 2026-05-06 17:00 | 48.75218 | 13.30825 | 34684 ft | 463 kts | 126° |
| 2026-05-06 17:00 | 48.72165 | 13.39365 | 34675 ft | 463 kts | 126° |
| 2026-05-06 17:01 | 48.69076 | 13.47949 | 34685 ft | 464 kts | 126° |
| 2026-05-06 17:01 | 48.65867 | 13.56412 | 34679 ft | 458 kts | 133° |
| 2026-05-06 17:02 | 48.61599 | 13.63277 | 34670 ft | 443 kts | 147° |
| 2026-05-06 17:02 | 48.56970 | 13.69353 | 34674 ft | 443 kts | 147° |
| 2026-05-06 17:03 | 48.52313 | 13.75491 | 34678 ft | 443 kts | 147° |
| 2026-05-06 17:03 | 48.47653 | 13.81613 | 34681 ft | 443 kts | 147° |
| 2026-05-06 17:04 | 48.42994 | 13.87705 | 34678 ft | 443 kts | 147° |
| 2026-05-06 17:04 | 48.38365 | 13.93728 | 34655 ft | 442 kts | 147° |
| 2026-05-06 17:05 | 48.33698 | 13.99791 | 34665 ft | 442 kts | 147° |
| 2026-05-06 17:05 | 48.29068 | 14.05796 | 34670 ft | 441 kts | 147° |
| 2026-05-06 17:06 | 48.24407 | 14.11826 | 34664 ft | 441 kts | 147° |
| 2026-05-06 17:06 | 48.19774 | 14.17817 | 34651 ft | 441 kts | 147° |
| 2026-05-06 17:07 | 48.15109 | 14.23820 | 34635 ft | 441 kts | 147° |
| 2026-05-06 17:07 | 48.10470 | 14.29780 | 34649 ft | 442 kts | 147° |
| 2026-05-06 17:08 | 48.05794 | 14.35765 | 34655 ft | 442 kts | 147° |
| 2026-05-06 17:08 | 48.01107 | 14.41748 | 34672 ft | 443 kts | 147° |
| 2026-05-06 17:09 | 47.96423 | 14.47734 | 34688 ft | 443 kts | 147° |
| 2026-05-06 17:09 | 47.91771 | 14.53664 | 34692 ft | 443 kts | 147° |
| 2026-05-06 17:10 | 47.87071 | 14.59623 | 34699 ft | 444 kts | 147° |
| 2026-05-06 17:10 | 47.82361 | 14.65584 | 34697 ft | 445 kts | 147° |
| 2026-05-06 17:11 | 47.77616 | 14.71553 | 34737 ft | 447 kts | 147° |
| 2026-05-06 17:11 | 47.72897 | 14.77494 | 34728 ft | 447 kts | 147° |
| 2026-05-06 17:12 | 47.68146 | 14.83477 | 34746 ft | 448 kts | 147° |
| 2026-05-06 17:12 | 47.63371 | 14.89459 | 34764 ft | 450 kts | 147° |
| 2026-05-06 17:13 | 47.58588 | 14.95453 | 34777 ft | 451 kts | 146° |
| 2026-05-06 17:13 | 47.53797 | 15.01435 | 34798 ft | 450 kts | 147° |
| 2026-05-06 17:14 | 47.49034 | 15.07349 | 34800 ft | 450 kts | 147° |
| 2026-05-06 17:14 | 47.44241 | 15.13287 | 34817 ft | 450 kts | 147° |
| 2026-05-06 17:15 | 47.39442 | 15.19224 | 34814 ft | 450 kts | 146° |
| 2026-05-06 17:15 | 47.34642 | 15.25157 | 34828 ft | 450 kts | 146° |
| 2026-05-06 17:16 | 47.29874 | 15.31037 | 34826 ft | 449 kts | 146° |
| 2026-05-06 17:16 | 47.25073 | 15.36934 | 34837 ft | 450 kts | 146° |
| 2026-05-06 17:17 | 47.20265 | 15.42821 | 34839 ft | 449 kts | 146° |
| 2026-05-06 17:17 | 47.15459 | 15.48707 | 34814 ft | 450 kts | 145° |
| 2026-05-06 17:18 | 47.10667 | 15.54556 | 34811 ft | 452 kts | 146° |
| 2026-05-06 17:18 | 47.05823 | 15.60445 | 34815 ft | 453 kts | 146° |
| 2026-05-06 17:19 | 47.00972 | 15.66338 | 34822 ft | 453 kts | 145° |
| 2026-05-06 17:19 | 46.96115 | 15.72224 | 34826 ft | 453 kts | 146° |
| 2026-05-06 17:20 | 46.91280 | 15.78055 | 34826 ft | 454 kts | 146° |
| 2026-05-06 17:20 | 46.86406 | 15.83926 | 34840 ft | 454 kts | 145° |
| 2026-05-06 17:21 | 46.81530 | 15.89792 | 34843 ft | 454 kts | 146° |
| 2026-05-06 17:21 | 46.76651 | 15.95651 | 34849 ft | 454 kts | 146° |
| 2026-05-06 17:22 | 46.71769 | 16.01503 | 34859 ft | 454 kts | 146° |
| 2026-05-06 17:22 | 46.66914 | 16.07298 | 34860 ft | 454 kts | 146° |
| 2026-05-06 17:23 | 46.62018 | 16.13111 | 34861 ft | 454 kts | 146° |
| 2026-05-06 17:23 | 46.57125 | 16.18913 | 34866 ft | 454 kts | 146° |
| 2026-05-06 17:24 | 46.52234 | 16.24705 | 34877 ft | 454 kts | 146° |
| 2026-05-06 17:24 | 46.47378 | 16.30459 | 34861 ft | 453 kts | 146° |
| 2026-05-06 17:25 | 46.42487 | 16.36227 | 34875 ft | 453 kts | 146° |
| 2026-05-06 17:25 | 46.37597 | 16.41977 | 34873 ft | 453 kts | 146° |
| 2026-05-06 17:26 | 46.32706 | 16.47710 | 34877 ft | 453 kts | 146° |
| 2026-05-06 17:26 | 46.27810 | 16.53436 | 34880 ft | 453 kts | 146° |
| 2026-05-06 17:27 | 46.22948 | 16.59122 | 34859 ft | 453 kts | 146° |
| 2026-05-06 17:27 | 46.18052 | 16.64843 | 34874 ft | 452 kts | 146° |
| 2026-05-06 17:28 | 46.13150 | 16.70540 | 34872 ft | 453 kts | 146° |
| 2026-05-06 17:28 | 46.08236 | 16.76225 | 34875 ft | 453 kts | 146° |
| 2026-05-06 17:29 | 46.03346 | 16.81878 | 34883 ft | 454 kts | 146° |
| 2026-05-06 17:29 | 45.98423 | 16.87567 | 34870 ft | 454 kts | 146° |
| 2026-05-06 17:30 | 45.93490 | 16.93248 | 34880 ft | 454 kts | 146° |
| 2026-05-06 17:30 | 45.88557 | 16.98926 | 34881 ft | 455 kts | 146° |
| 2026-05-06 17:31 | 45.83644 | 17.04565 | 34883 ft | 456 kts | 146° |
| 2026-05-06 17:31 | 45.78683 | 17.10230 | 34890 ft | 456 kts | 146° |
| 2026-05-06 17:32 | 45.73710 | 17.15865 | 34885 ft | 455 kts | 147° |
| 2026-05-06 17:32 | 45.68616 | 17.21225 | 34898 ft | 454 kts | 149° |
| 2026-05-06 17:33 | 45.63490 | 17.26366 | 34897 ft | 453 kts | 149° |
| 2026-05-06 17:33 | 45.58330 | 17.31567 | 34899 ft | 454 kts | 149° |
| 2026-05-06 17:34 | 45.53191 | 17.36826 | 34901 ft | 455 kts | 149° |
| 2026-05-06 17:34 | 45.48058 | 17.42111 | 34888 ft | 455 kts | 149° |
| 2026-05-06 17:35 | 45.42917 | 17.47366 | 34901 ft | 455 kts | 149° |
| 2026-05-06 17:35 | 45.37803 | 17.52567 | 34907 ft | 455 kts | 149° |
| 2026-05-06 17:36 | 45.30071 | 17.60396 | 34903 ft | 455 kts | 149° |
| 2026-05-06 17:36 | 45.24910 | 17.65605 | 34898 ft | 455 kts | 149° |
| 2026-05-06 17:37 | 45.19787 | 17.70779 | 34899 ft | 455 kts | 149° |
| 2026-05-06 17:37 | 45.14622 | 17.75991 | 34885 ft | 456 kts | 149° |
| 2026-05-06 17:38 | 45.09445 | 17.81194 | 34891 ft | 457 kts | 149° |
| 2026-05-06 17:38 | 45.04252 | 17.86389 | 34893 ft | 457 kts | 150° |
| 2026-05-06 17:39 | 44.98920 | 17.91257 | 34885 ft | 455 kts | 153° |
| 2026-05-06 17:39 | 44.93521 | 17.95817 | 34887 ft | 455 kts | 155° |
| 2026-05-06 17:40 | 44.88082 | 18.00420 | 34893 ft | 457 kts | 154° |
| 2026-05-06 17:40 | 44.82664 | 18.05115 | 34897 ft | 457 kts | 154° |
| 2026-05-06 17:41 | 44.77249 | 18.09826 | 34905 ft | 458 kts | 154° |
| 2026-05-06 17:41 | 44.71857 | 18.14498 | 34892 ft | 458 kts | 154° |
| 2026-05-06 17:42 | 44.66414 | 18.19194 | 34890 ft | 459 kts | 154° |
| 2026-05-06 17:42 | 44.60954 | 18.23878 | 34905 ft | 461 kts | 155° |
| 2026-05-06 17:43 | 44.55479 | 18.28574 | 34908 ft | 462 kts | 155° |
| 2026-05-06 17:43 | 44.50034 | 18.33234 | 34895 ft | 462 kts | 154° |
| 2026-05-06 17:44 | 44.44540 | 18.37922 | 34890 ft | 463 kts | 154° |
| 2026-05-06 17:44 | 44.39029 | 18.42610 | 34910 ft | 464 kts | 154° |
| 2026-05-06 17:45 | 44.33507 | 18.47299 | 34916 ft | 465 kts | 155° |
| 2026-05-06 17:45 | 44.28012 | 18.51955 | 34936 ft | 465 kts | 154° |
| 2026-05-06 17:46 | 44.22478 | 18.56653 | 34940 ft | 466 kts | 154° |
| 2026-05-06 17:46 | 44.16939 | 18.61339 | 34950 ft | 466 kts | 154° |
| 2026-05-06 17:47 | 44.11389 | 18.66017 | 34964 ft | 466 kts | 155° |
| 2026-05-06 17:47 | 44.05830 | 18.70683 | 34970 ft | 467 kts | 155° |
| 2026-05-06 17:48 | 44.00307 | 18.75306 | 34969 ft | 466 kts | 155° |
| 2026-05-06 17:48 | 43.94749 | 18.79966 | 34960 ft | 467 kts | 154° |
| 2026-05-06 17:49 | 43.89175 | 18.84628 | 34966 ft | 468 kts | 155° |
| 2026-05-06 17:49 | 43.83588 | 18.89286 | 34972 ft | 469 kts | 155° |
| 2026-05-06 17:50 | 43.78031 | 18.93904 | 34972 ft | 469 kts | 155° |
| 2026-05-06 17:50 | 43.72429 | 18.98538 | 34953 ft | 469 kts | 154° |
| 2026-05-06 17:51 | 43.66817 | 19.03183 | 34965 ft | 471 kts | 154° |
| 2026-05-06 17:51 | 43.61193 | 19.07843 | 34978 ft | 472 kts | 154° |
| 2026-05-06 17:52 | 43.55594 | 19.12462 | 34974 ft | 473 kts | 154° |
| 2026-05-06 17:52 | 43.49941 | 19.17094 | 34994 ft | 473 kts | 154° |
| 2026-05-06 17:53 | 43.44270 | 19.21691 | 34984 ft | 473 kts | 154° |
| 2026-05-06 17:53 | 43.38592 | 19.26271 | 35003 ft | 473 kts | 154° |
| 2026-05-06 17:54 | 43.32951 | 19.30826 | 34995 ft | 473 kts | 153° |
| 2026-05-06 17:54 | 43.27274 | 19.35406 | 35009 ft | 473 kts | 153° |
| 2026-05-06 17:55 | 43.21592 | 19.39959 | 35014 ft | 473 kts | 153° |
| 2026-05-06 17:55 | 43.15911 | 19.44502 | 35026 ft | 473 kts | 153° |
| 2026-05-06 17:56 | 43.10271 | 19.49022 | 35035 ft | 472 kts | 153° |
| 2026-05-06 17:56 | 43.04608 | 19.53561 | 35048 ft | 472 kts | 153° |
| 2026-05-06 17:57 | 42.98946 | 19.58088 | 35046 ft | 471 kts | 153° |
| 2026-05-06 17:57 | 42.93287 | 19.62592 | 35061 ft | 471 kts | 154° |
| 2026-05-06 17:58 | 42.87627 | 19.67087 | 35042 ft | 471 kts | 153° |
| 2026-05-06 17:58 | 42.82009 | 19.71546 | 35054 ft | 470 kts | 153° |
| 2026-05-06 17:59 | 42.76355 | 19.76015 | 35058 ft | 470 kts | 153° |
| 2026-05-06 17:59 | 42.70732 | 19.80444 | 35066 ft | 470 kts | 153° |
| 2026-05-06 18:00 | 42.65071 | 19.84898 | 35038 ft | 471 kts | 153° |
| 2026-05-06 18:00 | 42.59403 | 19.89369 | 35056 ft | 471 kts | 153° |
| 2026-05-06 18:01 | 42.53769 | 19.93819 | 35046 ft | 472 kts | 153° |
| 2026-05-06 18:01 | 42.48089 | 19.98284 | 35052 ft | 472 kts | 153° |
| 2026-05-06 18:02 | 42.42400 | 20.02739 | 35047 ft | 473 kts | 153° |
| 2026-05-06 18:02 | 42.36707 | 20.07186 | 35038 ft | 472 kts | 154° |
| 2026-05-06 18:03 | 42.31050 | 20.11601 | 35047 ft | 473 kts | 154° |
| 2026-05-06 18:03 | 42.25342 | 20.16044 | 35054 ft | 474 kts | 153° |
| 2026-05-06 18:04 | 42.19626 | 20.20491 | 35039 ft | 475 kts | 154° |
| 2026-05-06 18:04 | 42.13891 | 20.24945 | 35047 ft | 476 kts | 154° |
| 2026-05-06 18:05 | 42.08183 | 20.29367 | 35055 ft | 477 kts | 154° |
| 2026-05-06 18:05 | 42.02430 | 20.33812 | 35062 ft | 477 kts | 154° |
| 2026-05-06 18:06 | 41.96674 | 20.38243 | 35058 ft | 477 kts | 154° |
| 2026-05-06 18:06 | 41.90909 | 20.42678 | 35062 ft | 478 kts | 154° |
| 2026-05-06 18:07 | 41.85178 | 20.47079 | 35067 ft | 478 kts | 154° |
| 2026-05-06 18:07 | 41.79396 | 20.51507 | 35058 ft | 479 kts | 154° |
| 2026-05-06 18:08 | 41.73772 | 20.56336 | 35052 ft | 482 kts | 148° |
| 2026-05-06 18:08 | 41.68280 | 20.61487 | 35050 ft | 483 kts | 148° |
| 2026-05-06 18:09 | 41.62808 | 20.66591 | 35050 ft | 483 kts | 148° |
| 2026-05-06 18:09 | 41.57296 | 20.71726 | 35051 ft | 483 kts | 148° |
| 2026-05-06 18:10 | 41.51777 | 20.76856 | 35050 ft | 484 kts | 148° |
| 2026-05-06 18:10 | 41.46252 | 20.81995 | 35059 ft | 484 kts | 148° |
| 2026-05-06 18:11 | 41.41652 | 20.86260 | 35068 ft | 485 kts | 148° |
| 2026-05-06 18:11 | 41.35201 | 20.92212 | 35077 ft | 486 kts | 148° |
| 2026-05-06 18:12 | 41.29650 | 20.97342 | 35076 ft | 486 kts | 148° |
| 2026-05-06 18:12 | 41.24088 | 21.02464 | 35064 ft | 487 kts | 148° |
| 2026-05-06 18:13 | 41.18552 | 21.07543 | 35059 ft | 487 kts | 148° |
| 2026-05-06 18:13 | 41.12976 | 21.12655 | 35055 ft | 487 kts | 148° |
| 2026-05-06 18:14 | 41.07397 | 21.17761 | 35043 ft | 488 kts | 148° |
| 2026-05-06 18:14 | 41.01807 | 21.22853 | 35039 ft | 488 kts | 148° |
| 2026-05-06 18:15 | 40.96252 | 21.27909 | 35032 ft | 488 kts | 148° |
| 2026-05-06 18:15 | 40.90659 | 21.33003 | 35036 ft | 488 kts | 148° |
| 2026-05-06 18:16 | 40.84888 | 21.37664 | 35039 ft | 485 kts | 155° |
| 2026-05-06 18:16 | 40.78902 | 21.41774 | 35035 ft | 485 kts | 155° |
| 2026-05-06 18:17 | 40.72958 | 21.45860 | 35034 ft | 485 kts | 155° |
| 2026-05-06 18:17 | 40.66973 | 21.49966 | 35037 ft | 485 kts | 155° |
| 2026-05-06 18:18 | 40.60976 | 21.54071 | 35036 ft | 485 kts | 155° |
| 2026-05-06 18:18 | 40.54988 | 21.58150 | 35035 ft | 484 kts | 155° |
| 2026-05-06 18:19 | 40.49002 | 21.62221 | 35043 ft | 484 kts | 155° |
| 2026-05-06 18:19 | 40.43060 | 21.66266 | 35057 ft | 484 kts | 155° |
| 2026-05-06 18:20 | 40.37075 | 21.70335 | 35067 ft | 484 kts | 155° |
| 2026-05-06 18:20 | 40.31088 | 21.74391 | 35076 ft | 485 kts | 155° |
| 2026-05-06 18:21 | 40.26108 | 21.77757 | 35071 ft | 484 kts | 155° |
| 2026-05-06 18:21 | 40.19151 | 21.82464 | 35086 ft | 484 kts | 155° |
| 2026-05-06 18:22 | 40.13166 | 21.86495 | 35081 ft | 484 kts | 155° |
| 2026-05-06 18:22 | 40.08190 | 21.89836 | 35073 ft | 484 kts | 155° |
| 2026-05-06 18:23 | 40.02209 | 21.93847 | 35048 ft | 483 kts | 155° |
| 2026-05-06 18:23 | 39.95260 | 21.98487 | 35047 ft | 483 kts | 155° |
| 2026-05-06 18:24 | 39.90288 | 22.01804 | 35042 ft | 483 kts | 155° |
| 2026-05-06 18:24 | 39.84316 | 22.05789 | 35040 ft | 483 kts | 155° |
| 2026-05-06 18:25 | 39.78337 | 22.09766 | 35034 ft | 482 kts | 155° |
| 2026-05-06 18:25 | 39.71393 | 22.14381 | 35040 ft | 482 kts | 155° |
| 2026-05-06 18:26 | 39.66434 | 22.17673 | 35040 ft | 481 kts | 155° |
| 2026-05-06 18:26 | 39.60472 | 22.21617 | 35034 ft | 481 kts | 155° |
| 2026-05-06 18:27 | 39.54514 | 22.25559 | 35030 ft | 480 kts | 155° |
| 2026-05-06 18:27 | 39.47597 | 22.30117 | 35031 ft | 480 kts | 155° |
| 2026-05-06 18:28 | 39.42608 | 22.33393 | 35034 ft | 480 kts | 155° |
| 2026-05-06 18:28 | 39.36696 | 22.37267 | 35032 ft | 480 kts | 155° |
| 2026-05-06 18:29 | 39.30837 | 22.41395 | 35032 ft | 481 kts | 147° |
| 2026-05-06 18:29 | 39.25525 | 22.46676 | 35036 ft | 482 kts | 143° |
| 2026-05-06 18:30 | 39.20233 | 22.51993 | 35028 ft | 482 kts | 143° |
| 2026-05-06 18:30 | 39.14965 | 22.57261 | 35032 ft | 483 kts | 143° |
| 2026-05-06 18:31 | 39.09659 | 22.62551 | 35031 ft | 483 kts | 143° |
| 2026-05-06 18:31 | 39.04351 | 22.67837 | 35029 ft | 482 kts | 144° |
| 2026-05-06 18:32 | 38.99049 | 22.73110 | 35031 ft | 482 kts | 144° |
| 2026-05-06 18:32 | 38.93781 | 22.78344 | 35049 ft | 482 kts | 144° |
| 2026-05-06 18:33 | 38.88471 | 22.83604 | 35040 ft | 482 kts | 144° |
| 2026-05-06 18:33 | 38.83150 | 22.88862 | 35041 ft | 483 kts | 144° |
| 2026-05-06 18:34 | 38.77821 | 22.94115 | 35040 ft | 483 kts | 144° |
| 2026-05-06 18:34 | 38.72486 | 22.99371 | 35038 ft | 484 kts | 144° |
| 2026-05-06 18:35 | 38.67183 | 23.04594 | 35048 ft | 484 kts | 144° |
| 2026-05-06 18:35 | 38.61844 | 23.09847 | 35047 ft | 484 kts | 144° |
| 2026-05-06 18:36 | 38.56495 | 23.15091 | 35053 ft | 485 kts | 144° |
| 2026-05-06 18:36 | 38.51134 | 23.20322 | 35054 ft | 485 kts | 144° |
| 2026-05-06 18:37 | 38.45813 | 23.25505 | 35072 ft | 485 kts | 144° |
| 2026-05-06 18:37 | 38.40456 | 23.30725 | 35072 ft | 484 kts | 144° |
| 2026-05-06 18:38 | 38.35104 | 23.35931 | 35071 ft | 484 kts | 144° |
| 2026-05-06 18:38 | 38.29747 | 23.41123 | 35071 ft | 484 kts | 144° |
| 2026-05-06 18:39 | 38.24427 | 23.46267 | 35061 ft | 484 kts | 144° |
| 2026-05-06 18:40 | 38.16387 | 23.54038 | 35077 ft | 484 kts | 144° |
| 2026-05-06 18:40 | 38.11019 | 23.59216 | 35076 ft | 484 kts | 144° |
| 2026-05-06 18:41 | 38.05687 | 23.64350 | 35080 ft | 484 kts | 144° |
| 2026-05-06 18:41 | 38.00307 | 23.69498 | 35071 ft | 484 kts | 144° |
| 2026-05-06 18:42 | 37.94929 | 23.74640 | 35075 ft | 484 kts | 144° |
| 2026-05-06 18:42 | 37.89596 | 23.79856 | 35078 ft | 485 kts | 139° |
| 2026-05-06 18:43 | 37.85062 | 23.86172 | 35077 ft | 485 kts | 130° |
| 2026-05-06 18:43 | 37.80743 | 23.92668 | 35068 ft | 486 kts | 130° |
| 2026-05-06 18:44 | 37.76374 | 23.99180 | 35075 ft | 486 kts | 131° |
| 2026-05-06 18:44 | 37.71998 | 24.05690 | 35072 ft | 486 kts | 131° |
| 2026-05-06 18:45 | 37.67624 | 24.12200 | 35062 ft | 486 kts | 130° |
| 2026-05-06 18:45 | 37.63253 | 24.18709 | 35064 ft | 486 kts | 130° |
| 2026-05-06 18:46 | 37.58904 | 24.25167 | 35064 ft | 486 kts | 131° |
| 2026-05-06 18:46 | 37.54068 | 24.31071 | 35071 ft | 484 kts | 146° |
| 2026-05-06 18:47 | 37.48396 | 24.35606 | 35069 ft | 483 kts | 150° |
| 2026-05-06 18:47 | 37.42697 | 24.40093 | 35078 ft | 483 kts | 149° |
| 2026-05-06 18:48 | 37.37033 | 24.44562 | 35066 ft | 484 kts | 149° |
| 2026-05-06 18:48 | 37.31314 | 24.49044 | 35065 ft | 485 kts | 150° |
| 2026-05-06 18:49 | 37.25586 | 24.53515 | 35070 ft | 485 kts | 150° |
| 2026-05-06 18:49 | 37.19851 | 24.57982 | 35074 ft | 485 kts | 150° |
| 2026-05-06 18:50 | 37.14152 | 24.62419 | 35077 ft | 485 kts | 150° |
| 2026-05-06 18:50 | 37.08412 | 24.66874 | 35087 ft | 485 kts | 150° |
| 2026-05-06 18:50 | 37.05546 | 24.69096 | 34945 ft | 484 kts | 150° |
| 2026-05-06 18:51 | 37.02687 | 24.71316 | 34234 ft | 485 kts | 150° |
| 2026-05-06 18:51 | 36.99813 | 24.73548 | 33325 ft | 487 kts | 149° |
| 2026-05-06 18:51 | 36.96926 | 24.75790 | 32450 ft | 489 kts | 149° |
| 2026-05-06 18:51 | 36.94026 | 24.78034 | 31602 ft | 490 kts | 149° |
| 2026-05-06 18:52 | 36.91123 | 24.80277 | 30762 ft | 491 kts | 149° |
| 2026-05-06 18:52 | 36.88253 | 24.82494 | 29895 ft | 492 kts | 149° |
| 2026-05-06 18:52 | 36.85338 | 24.84746 | 28843 ft | 494 kts | 149° |
| 2026-05-06 18:52 | 36.82411 | 24.87009 | 27771 ft | 496 kts | 149° |
| 2026-05-06 18:53 | 36.79468 | 24.89285 | 26687 ft | 499 kts | 149° |
| 2026-05-06 18:53 | 36.76514 | 24.91569 | 25597 ft | 501 kts | 148° |
| 2026-05-06 18:53 | 36.73545 | 24.93860 | 24498 ft | 503 kts | 148° |
| 2026-05-06 18:53 | 36.70560 | 24.96157 | 23518 ft | 503 kts | 148° |
| 2026-05-06 18:54 | 36.67597 | 24.98431 | 22670 ft | 497 kts | 148° |
| 2026-05-06 18:54 | 36.64662 | 25.00680 | 22203 ft | 495 kts | 148° |
| 2026-05-06 18:54 | 36.61769 | 25.02898 | 21852 ft | 495 kts | 148° |
| 2026-05-06 18:54 | 36.58843 | 25.05139 | 21701 ft | 493 kts | 148° |
| 2026-05-06 18:55 | 36.55923 | 25.07374 | 21599 ft | 493 kts | 148° |
| 2026-05-06 18:55 | 36.53001 | 25.09610 | 21502 ft | 492 kts | 148° |
| 2026-05-06 18:55 | 36.50087 | 25.11838 | 21409 ft | 492 kts | 148° |
| 2026-05-06 18:55 | 36.47174 | 25.14063 | 21299 ft | 491 kts | 149° |
| 2026-05-06 18:56 | 36.44263 | 25.16281 | 21199 ft | 490 kts | 149° |
| 2026-05-06 18:56 | 36.41357 | 25.18493 | 21102 ft | 490 kts | 149° |
| 2026-05-06 18:56 | 36.38455 | 25.20701 | 20521 ft | 488 kts | 149° |
| 2026-05-06 18:56 | 36.35607 | 25.22865 | 19672 ft | 485 kts | 149° |
| 2026-05-06 18:57 | 36.32739 | 25.25041 | 18901 ft | 481 kts | 149° |
| 2026-05-06 18:57 | 36.29894 | 25.27198 | 18135 ft | 477 kts | 149° |
| 2026-05-06 18:57 | 36.27075 | 25.29331 | 17361 ft | 472 kts | 149° |
| 2026-05-06 18:57 | 36.24298 | 25.31430 | 16534 ft | 461 kts | 149° |
| 2026-05-06 18:58 | 36.21585 | 25.33484 | 15406 ft | 454 kts | 149° |
| 2026-05-06 18:58 | 36.18887 | 25.35529 | 14613 ft | 453 kts | 149° |
| 2026-05-06 18:58 | 36.16228 | 25.37542 | 14069 ft | 444 kts | 149° |
| 2026-05-06 18:58 | 36.13606 | 25.39514 | 13401 ft | 438 kts | 150° |
| 2026-05-06 18:59 | 36.10908 | 25.41052 | 12970 ft | 426 kts | 161° |
| 2026-05-06 18:59 | 36.08186 | 25.42148 | 12790 ft | 396 kts | 162° |
| 2026-05-06 18:59 | 36.05671 | 25.43165 | 12632 ft | 366 kts | 162° |
| 2026-05-06 18:59 | 36.03342 | 25.44112 | 12506 ft | 340 kts | 162° |
| 2026-05-06 19:00 | 36.01155 | 25.44999 | 12187 ft | 324 kts | 162° |
| 2026-05-06 19:00 | 35.99030 | 25.45857 | 11685 ft | 319 kts | 162° |
| 2026-05-06 19:00 | 35.96937 | 25.46699 | 11226 ft | 313 kts | 162° |
| 2026-05-06 19:00 | 35.94885 | 25.47523 | 11053 ft | 311 kts | 162° |
| 2026-05-06 19:01 | 35.92824 | 25.48352 | 10683 ft | 311 kts | 162° |
| 2026-05-06 19:01 | 35.90797 | 25.49166 | 10340 ft | 310 kts | 162° |
| 2026-05-06 19:01 | 35.88756 | 25.49984 | 10006 ft | 308 kts | 162° |
| 2026-05-06 19:01 | 35.86723 | 25.50795 | 9655 ft | 305 kts | 162° |
| 2026-05-06 19:02 | 35.84703 | 25.51603 | 9235 ft | 305 kts | 162° |
| 2026-05-06 19:02 | 35.82698 | 25.52408 | 8809 ft | 304 kts | 162° |
| 2026-05-06 19:02 | 35.80699 | 25.53209 | 8496 ft | 300 kts | 161° |
| 2026-05-06 19:02 | 35.78724 | 25.54002 | 8109 ft | 298 kts | 161° |
| 2026-05-06 19:03 | 35.76756 | 25.54792 | 7720 ft | 297 kts | 161° |
| 2026-05-06 19:03 | 35.74797 | 25.55576 | 7342 ft | 295 kts | 161° |
| 2026-05-06 19:03 | 35.72876 | 25.56344 | 6976 ft | 293 kts | 161° |
| 2026-05-06 19:03 | 35.70941 | 25.57116 | 6602 ft | 291 kts | 161° |
| 2026-05-06 19:04 | 35.69110 | 25.58138 | 6220 ft | 288 kts | 146° |
| 2026-05-06 19:04 | 35.67538 | 25.59619 | 5977 ft | 282 kts | 140° |
| 2026-05-06 19:04 | 35.66014 | 25.61133 | 5977 ft | 282 kts | 140° |
| 2026-05-06 19:04 | 35.64481 | 25.62642 | 5981 ft | 283 kts | 140° |
| 2026-05-06 19:05 | 35.62945 | 25.64151 | 5923 ft | 283 kts | 140° |
| 2026-05-06 19:05 | 35.61303 | 25.65492 | 5428 ft | 286 kts | 158° |
| 2026-05-06 19:05 | 35.59403 | 25.65955 | 5029 ft | 282 kts | 183° |
| 2026-05-06 19:05 | 35.57527 | 25.65432 | 4839 ft | 275 kts | 207° |
| 2026-05-06 19:06 | 35.55997 | 25.64076 | 4680 ft | 271 kts | 230° |
| 2026-05-06 19:06 | 35.54984 | 25.62153 | 4545 ft | 268 kts | 243° |
| 2026-05-06 19:06 | 35.54112 | 25.60135 | 4399 ft | 267 kts | 243° |
| 2026-05-06 19:06 | 35.53249 | 25.58137 | 4262 ft | 259 kts | 243° |
| 2026-05-06 19:07 | 35.52424 | 25.56232 | 4133 ft | 247 kts | 243° |
| 2026-05-06 19:07 | 35.51634 | 25.54415 | 3973 ft | 237 kts | 243° |
| 2026-05-06 19:07 | 35.50828 | 25.52680 | 3860 ft | 234 kts | 233° |
| 2026-05-06 19:07 | 35.49602 | 25.51408 | 3745 ft | 244 kts | 207° |
| 2026-05-06 19:08 | 35.48041 | 25.50613 | 3615 ft | 239 kts | 202° |
| 2026-05-06 19:08 | 35.46518 | 25.49889 | 3478 ft | 231 kts | 202° |
| 2026-05-06 19:08 | 35.45027 | 25.49190 | 3289 ft | 226 kts | 202° |
| 2026-05-06 19:08 | 35.43594 | 25.48519 | 3229 ft | 215 kts | 202° |
| 2026-05-06 19:09 | 35.42232 | 25.47878 | 3181 ft | 206 kts | 202° |
| 2026-05-06 19:09 | 35.40906 | 25.47248 | 3098 ft | 203 kts | 202° |
| 2026-05-06 19:09 | 35.39593 | 25.46625 | 3008 ft | 202 kts | 202° |
| 2026-05-06 19:09 | 35.38298 | 25.46012 | 2996 ft | 194 kts | 202° |
| 2026-05-06 19:10 | 35.37162 | 25.45329 | 2982 ft | 176 kts | 215° |
| 2026-05-06 19:10 | 35.36274 | 25.44405 | 2970 ft | 161 kts | 229° |
| 2026-05-06 19:10 | 35.35627 | 25.43325 | 2976 ft | 155 kts | 243° |
| 2026-05-06 19:10 | 35.35162 | 25.42146 | 2981 ft | 153 kts | 246° |
| 2026-05-06 19:11 | 35.34711 | 25.40968 | 2985 ft | 153 kts | 246° |
| 2026-05-06 19:11 | 35.34260 | 25.39792 | 2982 ft | 153 kts | 246° |
| 2026-05-06 19:11 | 35.33804 | 25.38606 | 2781 ft | 154 kts | 246° |
| 2026-05-06 19:11 | 35.33357 | 25.37445 | 2581 ft | 147 kts | 245° |
| 2026-05-06 19:12 | 35.32958 | 25.36327 | 2372 ft | 143 kts | 254° |
| 2026-05-06 19:12 | 35.32804 | 25.35141 | 2213 ft | 139 kts | 270° |
| 2026-05-06 19:12 | 35.32872 | 25.33952 | 2184 ft | 140 kts | 275° |
| 2026-05-06 19:12 | 35.32954 | 25.32765 | 2128 ft | 140 kts | 274° |
| 2026-05-06 19:13 | 35.33035 | 25.31578 | 2075 ft | 140 kts | 274° |
| 2026-05-06 19:13 | 35.33115 | 25.30389 | 2044 ft | 140 kts | 275° |
| 2026-05-06 19:13 | 35.33197 | 25.29197 | 1975 ft | 141 kts | 274° |
| 2026-05-06 19:13 | 35.33280 | 25.28000 | 1733 ft | 141 kts | 274° |
| 2026-05-06 19:14 | 35.33363 | 25.26810 | 1518 ft | 141 kts | 274° |
| 2026-05-06 19:14 | 35.33446 | 25.25616 | 1302 ft | 141 kts | 274° |
| 2026-05-06 19:14 | 35.33528 | 25.24433 | 1088 ft | 142 kts | 274° |
| 2026-05-06 19:14 | 35.33613 | 25.23224 | 870 ft | 143 kts | 274° |
| 2026-05-06 19:15 | 35.33702 | 25.22015 | 641 ft | 143 kts | 275° |
| 2026-05-06 19:15 | 35.33797 | 25.20806 | 388 ft | 141 kts | 271° |
| 2026-05-06 19:15 | 35.33860 | 25.19608 | 224 ft | 141 kts | 273° |
| 2026-05-06 19:15 | 35.33948 | 25.18436 | 93 ft | 128 kts | 273° |
| 2026-05-06 19:16 | 35.33995 | 25.17704 | 92 ft | 50 kts | 275° |
| 2026-05-06 19:16 | 35.34025 | 25.17285 | 90 ft | 46 kts | 275° |
| 2026-05-06 19:16 | 35.34000 | 25.17115 | 90 ft | 13 kts | 233° |
| 2026-05-06 19:16 | 35.33990 | 25.17092 | 90 ft | 5 kts | 244° |
| 2026-05-06 19:17 | 35.33964 | 25.17050 | 90 ft | 5 kts | 202° |
| 2026-05-06 19:17 | 35.33943 | 25.17065 | 93 ft | 2 kts | 123° |
| 2026-05-06 19:17 | 35.33941 | 25.17083 | 90 ft | 2 kts | 96° |
| 2026-05-06 19:17 | 35.33940 | 25.17097 | 90 ft | 4 kts | 95° |
| 2026-05-06 19:18 | 35.33932 | 25.17214 | 90 ft | 20 kts | 95° |
| 2026-05-06 19:18 | 35.33919 | 25.17383 | 91 ft | 17 kts | 95° |
| 2026-05-06 19:18 | 35.33906 | 25.17495 | 93 ft | 10 kts | 123° |
| 2026-05-06 19:18 | 35.33876 | 25.17512 | 91 ft | 4 kts | 182° |
| 2026-05-06 19:19 | 35.33857 | 25.17501 | 91 ft | 2 kts | 217° |
| 2026-05-06 19:19 | 35.33849 | 25.17482 | 93 ft | 2 kts | 253° |
| 2026-05-06 19:19 | 35.33850 | 25.17467 | 91 ft | 1 kts | 284° |
| 2026-05-06 19:19 | 35.33854 | 25.17459 | 91 ft | 1 kts | 298° |
| 2026-05-06 19:20 | 35.33866 | 25.17439 | 92 ft | 1 kts | 310° |
| 2026-05-06 19:20 | 35.33868 | 25.17436 | 91 ft | 1 kts | 312° |
| 2026-05-06 19:20 | 35.33873 | 25.17430 | 91 ft | 2 kts | 311° |
| 2026-05-06 19:20 | 35.33875 | 25.17426 | 91 ft | 0 kts | 316° |
| 2026-05-06 19:21 | 35.33876 | 25.17426 | 91 ft | 0 kts | 316° |